createdAt,value
2018-07-11T00:00:16.143Z,18.26
2018-07-11T00:01:16.305Z,18.26
2018-07-11T00:02:16.476Z,18.35
2018-07-11T00:03:16.646Z,18.32
2018-07-11T00:04:16.878Z,18.36
2018-07-11T00:05:17.140Z,18.52
2018-07-11T00:06:17.376Z,18.39
2018-07-11T00:07:17.302Z,18.45
2018-07-11T00:08:17.536Z,18.42
2018-07-11T00:09:17.819Z,18.35
2018-07-11T00:10:17.886Z,18.35
2018-07-11T00:11:17.963Z,18.36
2018-07-11T00:12:18.145Z,18.39
2018-07-11T00:13:18.480Z,18.42
2018-07-11T00:14:18.644Z,18.35
2018-07-11T00:15:18.681Z,18.44
2018-07-11T00:16:18.862Z,18.42
2018-07-11T00:17:19.027Z,18.37
2018-07-11T00:18:19.325Z,18.37
2018-07-11T00:19:19.432Z,18.35
2018-07-11T00:20:19.554Z,18.36
2018-07-11T00:21:19.731Z,18.33
2018-07-11T00:22:20.083Z,18.35
2018-07-11T00:23:20.101Z,18.27
2018-07-11T00:24:20.272Z,18.32
2018-07-11T00:25:20.438Z,18.29
2018-07-11T00:26:20.610Z,18.32
2018-07-11T00:27:20.793Z,18.39
2018-07-11T00:28:21.123Z,18.35
2018-07-11T00:29:21.173Z,18.32
2018-07-11T00:30:21.247Z,18.32
2018-07-11T00:31:21.536Z,18.39
2018-07-11T00:32:21.700Z,18.23
2018-07-11T00:33:21.767Z,18.41
2018-07-11T00:34:22.053Z,18.30
2018-07-11T00:35:22.126Z,18.20
2018-07-11T00:36:22.353Z,18.21
2018-07-11T00:37:22.743Z,18.17
2018-07-11T00:38:22.656Z,18.10
2018-07-11T00:39:22.720Z,18.08
2018-07-11T00:40:23.018Z,18.15
2018-07-11T00:41:23.107Z,18.11
2018-07-11T00:42:23.408Z,18.08
2018-07-11T00:43:23.735Z,18.03
2018-07-11T00:44:23.675Z,18.00
2018-07-11T00:45:23.843Z,18.05
2018-07-11T00:46:24.017Z,18.05
2018-07-11T00:47:24.183Z,18.14
2018-07-11T00:48:24.357Z,18.08
2018-07-11T00:49:24.739Z,17.96
2018-07-11T00:50:24.814Z,18.00
2018-07-11T00:51:25.006Z,17.93
2018-07-11T00:52:25.031Z,18.00
2018-07-11T00:53:25.241Z,18.02
2018-07-11T00:54:25.374Z,18.03
2018-07-11T00:55:26.487Z,17.99
2018-07-11T00:56:25.870Z,18.11
2018-07-11T00:57:26.097Z,18.08
2018-07-11T00:58:26.182Z,18.08
2018-07-11T00:59:26.186Z,18.11
2018-07-11T01:00:26.355Z,18.14
2018-07-11T01:01:26.526Z,18.17
2018-07-11T01:02:26.687Z,18.18
2018-07-11T01:03:26.864Z,18.17
2018-07-11T01:04:27.030Z,18.10
2018-07-11T01:05:27.194Z,18.15
2018-07-11T01:06:27.364Z,18.15
2018-07-11T01:07:27.542Z,18.23
2018-07-11T01:08:27.722Z,18.17
2018-07-11T01:09:27.893Z,18.15
2018-07-11T01:10:28.059Z,18.18
2018-07-11T01:11:28.237Z,18.18
2018-07-11T01:12:28.400Z,18.18
2018-07-11T01:13:28.569Z,18.21
2018-07-11T01:14:28.730Z,18.25
2018-07-11T01:15:28.895Z,18.17
2018-07-11T01:16:29.061Z,18.11
2018-07-11T01:17:29.231Z,18.12
2018-07-11T01:18:29.397Z,18.14
2018-07-11T01:19:29.573Z,18.17
2018-07-11T01:20:29.743Z,18.12
2018-07-11T01:21:29.911Z,18.17
2018-07-11T01:22:30.075Z,18.11
2018-07-11T01:23:30.258Z,18.14
2018-07-11T01:24:30.423Z,18.14
2018-07-11T01:25:30.591Z,18.14
2018-07-11T01:26:30.762Z,18.20
2018-07-11T01:27:30.931Z,18.18
2018-07-11T01:28:31.099Z,18.21
2018-07-11T01:29:31.276Z,18.15
2018-07-11T01:30:31.435Z,18.25
2018-07-11T01:31:31.608Z,18.25
2018-07-11T01:32:31.777Z,18.26
2018-07-11T01:33:31.946Z,18.27
2018-07-11T01:34:32.116Z,18.21
2018-07-11T01:35:32.284Z,18.20
2018-07-11T01:36:32.449Z,18.17
2018-07-11T01:37:32.615Z,18.18
2018-07-11T01:38:33.403Z,18.25
2018-07-11T01:39:32.948Z,18.23
2018-07-11T01:40:33.109Z,18.23
2018-07-11T01:41:33.276Z,18.25
2018-07-11T01:42:33.448Z,18.26
2018-07-11T01:43:33.612Z,18.27
2018-07-11T01:44:33.780Z,18.27
2018-07-11T01:45:33.948Z,18.29
2018-07-11T01:46:34.116Z,18.29
2018-07-11T01:47:34.281Z,18.29
2018-07-11T01:48:34.453Z,18.26
2018-07-11T01:49:34.616Z,18.32
2018-07-11T01:50:34.785Z,18.41
2018-07-11T01:51:34.950Z,18.33
2018-07-11T01:52:35.129Z,18.36
2018-07-11T01:53:35.349Z,18.35
2018-07-11T01:54:35.515Z,18.25
2018-07-11T01:55:35.903Z,18.26
2018-07-11T01:56:35.796Z,18.33
2018-07-11T01:57:35.965Z,18.37
2018-07-11T01:58:36.135Z,18.39
2018-07-11T01:59:36.302Z,18.37
2018-07-11T02:00:36.471Z,18.44
2018-07-11T02:01:36.630Z,18.26
2018-07-11T02:02:36.800Z,18.27
2018-07-11T02:03:36.965Z,18.30
2018-07-11T02:04:37.132Z,18.32
2018-07-11T02:05:37.295Z,18.30
2018-07-11T02:06:37.462Z,18.37
2018-07-11T02:07:37.699Z,18.33
2018-07-11T02:08:37.799Z,18.33
2018-07-11T02:09:37.967Z,18.32
2018-07-11T02:10:38.130Z,18.35
2018-07-11T02:11:38.301Z,18.33
2018-07-11T02:12:38.469Z,18.36
2018-07-11T02:13:38.641Z,18.30
2018-07-11T02:14:38.805Z,18.36
2018-07-11T02:15:38.982Z,18.35
2018-07-11T02:16:39.146Z,18.45
2018-07-11T02:17:39.312Z,18.45
2018-07-11T02:18:39.505Z,18.35
2018-07-11T02:19:39.673Z,18.29
2018-07-11T02:20:39.839Z,18.23
2018-07-11T02:21:40.007Z,18.26
2018-07-11T02:22:40.170Z,18.29
2018-07-11T02:23:40.339Z,18.26
2018-07-11T02:24:40.506Z,18.23
2018-07-11T02:25:40.675Z,18.21
2018-07-11T02:26:40.844Z,18.23
2018-07-11T02:27:41.015Z,18.26
2018-07-11T02:28:41.171Z,18.30
2018-07-11T02:29:41.342Z,18.30
2018-07-11T02:30:41.508Z,18.30
2018-07-11T02:31:41.675Z,18.23
2018-07-11T02:32:41.845Z,18.21
2018-07-11T02:33:42.013Z,18.27
2018-07-11T02:34:42.180Z,18.18
2018-07-11T02:35:42.348Z,18.18
2018-07-11T02:36:42.529Z,18.12
2018-07-11T02:37:42.698Z,18.14
2018-07-11T02:38:42.865Z,18.15
2018-07-11T02:39:43.027Z,18.23
2018-07-11T02:40:43.207Z,18.21
2018-07-11T02:41:43.385Z,18.23
2018-07-11T02:42:43.547Z,18.20
2018-07-11T02:43:43.713Z,18.23
2018-07-11T02:44:43.880Z,18.15
2018-07-11T02:45:44.052Z,18.15
2018-07-11T02:46:44.216Z,18.17
2018-07-11T02:47:44.386Z,18.20
2018-07-11T02:48:44.549Z,18.21
2018-07-11T02:49:44.721Z,18.17
2018-07-11T02:50:44.889Z,18.21
2018-07-11T02:51:45.057Z,18.21
2018-07-11T02:52:45.228Z,18.23
2018-07-11T02:53:45.399Z,18.17
2018-07-11T02:54:45.565Z,18.17
2018-07-11T02:55:45.731Z,18.14
2018-07-11T02:56:45.893Z,18.20
2018-07-11T02:57:46.067Z,18.14
2018-07-11T02:58:46.244Z,18.17
2018-07-11T02:59:46.420Z,18.12
2018-07-11T03:00:46.581Z,18.21
2018-07-11T03:01:46.749Z,18.14
2018-07-11T03:02:46.914Z,18.20
2018-07-11T03:03:47.081Z,18.23
2018-07-11T03:04:47.249Z,18.23
2018-07-11T03:05:47.419Z,18.15
2018-07-11T03:06:47.580Z,18.21
2018-07-11T03:07:47.749Z,18.23
2018-07-11T03:08:47.920Z,18.25
2018-07-11T03:09:48.087Z,18.18
2018-07-11T03:10:48.260Z,18.20
2018-07-11T03:11:48.422Z,18.27
2018-07-11T03:12:48.591Z,18.32
2018-07-11T03:13:48.767Z,18.32
2018-07-11T03:14:48.930Z,18.27
2018-07-11T03:15:49.097Z,18.26
2018-07-11T03:16:49.266Z,18.21
2018-07-11T03:17:49.434Z,18.20
2018-07-11T03:18:49.603Z,18.10
2018-07-11T03:19:49.772Z,18.10
2018-07-11T03:20:49.943Z,18.17
2018-07-11T03:21:50.107Z,18.07
2018-07-11T03:22:50.280Z,18.21
2018-07-11T03:23:50.445Z,18.23
2018-07-11T03:24:50.612Z,18.20
2018-07-11T03:25:50.777Z,18.23
2018-07-11T03:26:50.948Z,18.33
2018-07-11T03:27:51.120Z,18.32
2018-07-11T03:28:51.286Z,18.26
2018-07-11T03:29:51.453Z,18.32
2018-07-11T03:30:51.626Z,18.20
2018-07-11T03:31:51.789Z,18.30
2018-07-11T03:32:51.958Z,18.30
2018-07-11T03:33:52.125Z,18.30
2018-07-11T03:34:52.292Z,18.27
2018-07-11T03:35:52.459Z,18.23
2018-07-11T03:36:52.629Z,18.21
2018-07-11T03:37:52.799Z,18.27
2018-07-11T03:38:52.966Z,18.21
2018-07-11T03:39:53.134Z,18.29
2018-07-11T03:40:53.315Z,18.35
2018-07-11T03:41:53.484Z,18.33
2018-07-11T03:42:54.429Z,18.33
2018-07-11T03:43:53.848Z,18.32
2018-07-11T03:44:54.009Z,18.27
2018-07-11T03:45:54.179Z,18.25
2018-07-11T03:46:54.349Z,18.17
2018-07-11T03:47:54.525Z,18.18
2018-07-11T03:48:54.691Z,18.14
2018-07-11T03:49:54.864Z,18.12
2018-07-11T03:50:55.039Z,18.17
2018-07-11T03:51:55.205Z,18.29
2018-07-11T03:52:55.395Z,18.11
2018-07-11T03:53:55.946Z,18.11
2018-07-11T03:54:55.710Z,18.18
2018-07-11T03:55:56.138Z,18.10
2018-07-11T03:56:56.049Z,18.18
2018-07-11T03:57:56.614Z,18.20
2018-07-11T03:58:56.796Z,18.14
2018-07-11T03:59:56.911Z,18.18
2018-07-11T04:00:57.096Z,18.26
2018-07-11T04:01:57.241Z,18.30
2018-07-11T04:02:57.459Z,18.27
2018-07-11T04:03:57.679Z,18.36
2018-07-11T04:04:57.409Z,18.23
2018-07-11T04:05:57.571Z,18.35
2018-07-11T04:06:57.736Z,18.26
2018-07-11T04:07:57.910Z,18.23
2018-07-11T04:08:58.069Z,18.32
2018-07-11T04:09:58.242Z,18.21
2018-07-11T04:10:58.407Z,18.20
2018-07-11T04:11:58.576Z,18.21
2018-07-11T04:12:58.746Z,18.29
2018-07-11T04:13:58.914Z,18.26
2018-07-11T04:14:59.085Z,18.33
2018-07-11T04:15:59.255Z,18.36
2018-07-11T04:16:59.424Z,18.35
2018-07-11T04:17:59.579Z,18.42
2018-07-11T04:18:59.763Z,18.44
2018-07-11T04:19:59.922Z,18.45
2018-07-11T04:21:00.094Z,18.63
2018-07-11T04:22:00.261Z,18.54
2018-07-11T04:23:00.436Z,18.60
2018-07-11T04:24:00.597Z,18.65
2018-07-11T04:25:00.766Z,18.70
2018-07-11T04:26:00.931Z,18.70
2018-07-11T04:27:01.094Z,18.70
2018-07-11T04:28:01.263Z,18.70
2018-07-11T04:29:01.428Z,18.69
2018-07-11T04:30:01.598Z,18.81
2018-07-11T04:31:01.766Z,18.81
2018-07-11T04:32:01.938Z,18.84
2018-07-11T04:33:02.110Z,18.84
2018-07-11T04:34:02.280Z,18.76
2018-07-11T04:35:02.450Z,18.92
2018-07-11T04:36:02.621Z,18.92
2018-07-11T04:37:02.786Z,18.99
2018-07-11T04:38:02.954Z,18.99
2018-07-11T04:39:03.128Z,19.04
2018-07-11T04:40:03.298Z,18.99
2018-07-11T04:41:03.458Z,19.07
2018-07-11T04:42:03.628Z,19.04
2018-07-11T04:43:03.803Z,19.07
2018-07-11T04:44:03.959Z,19.08
2018-07-11T04:45:04.132Z,19.00
2018-07-11T04:46:04.303Z,19.04
2018-07-11T04:47:04.467Z,19.07
2018-07-11T04:48:04.639Z,19.18
2018-07-11T04:49:04.806Z,19.13
2018-07-11T04:50:04.982Z,19.06
2018-07-11T04:51:05.140Z,18.99
2018-07-11T04:52:05.308Z,19.07
2018-07-11T04:53:05.481Z,19.02
2018-07-11T04:54:05.654Z,19.07
2018-07-11T04:55:05.819Z,19.18
2018-07-11T04:56:05.992Z,19.13
2018-07-11T04:57:06.169Z,19.07
2018-07-11T04:58:06.336Z,19.18
2018-07-11T04:59:06.516Z,19.18
2018-07-11T05:00:06.688Z,19.25
2018-07-11T05:01:06.847Z,19.31
2018-07-11T05:02:07.016Z,19.32
2018-07-11T05:03:07.184Z,19.14
2018-07-11T05:04:07.353Z,19.18
2018-07-11T05:05:07.520Z,19.18
2018-07-11T05:06:07.679Z,19.02
2018-07-11T05:07:07.852Z,19.07
2018-07-11T05:08:08.016Z,19.10
2018-07-11T05:09:08.185Z,19.22
2018-07-11T05:10:08.356Z,19.14
2018-07-11T05:11:08.567Z,19.22
2018-07-11T05:12:08.695Z,19.21
2018-07-11T05:13:08.865Z,19.14
2018-07-11T05:14:09.033Z,19.21
2018-07-11T05:15:09.195Z,19.31
2018-07-11T05:16:09.426Z,19.25
2018-07-11T05:17:09.533Z,19.31
2018-07-11T05:18:09.704Z,19.40
2018-07-11T05:19:09.872Z,19.48
2018-07-11T05:20:10.041Z,19.50
2018-07-11T05:21:10.213Z,19.62
2018-07-11T05:22:10.384Z,19.61
2018-07-11T05:23:10.559Z,19.69
2018-07-11T05:24:10.730Z,19.71
2018-07-11T05:25:10.894Z,19.74
2018-07-11T05:26:11.059Z,19.63
2018-07-11T05:27:11.227Z,19.68
2018-07-11T05:28:11.400Z,19.66
2018-07-11T05:29:11.570Z,19.66
2018-07-11T05:30:11.739Z,19.63
2018-07-11T05:31:11.912Z,19.69
2018-07-11T05:32:12.088Z,19.77
2018-07-11T05:33:12.253Z,19.65
2018-07-11T05:34:12.416Z,19.63
2018-07-11T05:35:12.589Z,19.68
2018-07-11T05:36:12.795Z,19.62
2018-07-11T05:37:12.926Z,19.61
2018-07-11T05:38:13.087Z,19.61
2018-07-11T05:39:13.258Z,19.68
2018-07-11T05:40:13.425Z,19.55
2018-07-11T05:41:13.606Z,19.58
2018-07-11T05:42:13.775Z,19.69
2018-07-11T05:43:13.941Z,19.77
2018-07-11T05:44:14.111Z,19.68
2018-07-11T05:45:14.279Z,19.81
2018-07-11T05:46:14.453Z,19.86
2018-07-11T05:47:14.631Z,19.86
2018-07-11T05:48:14.802Z,19.95
2018-07-11T05:49:14.968Z,20.02
2018-07-11T05:50:15.139Z,20.06
2018-07-11T05:51:15.320Z,20.05
2018-07-11T05:52:15.492Z,20.14
2018-07-11T05:53:15.663Z,20.05
2018-07-11T05:54:15.833Z,20.03
2018-07-11T05:55:16.014Z,19.95
2018-07-11T05:56:16.176Z,19.95
2018-07-11T05:57:16.406Z,19.92
2018-07-11T05:58:16.522Z,19.86
2018-07-11T05:59:16.693Z,19.91
2018-07-11T06:00:16.860Z,19.94
2018-07-11T06:01:17.040Z,19.87
2018-07-11T06:02:17.205Z,19.88
2018-07-11T06:03:17.375Z,19.92
2018-07-11T06:04:17.542Z,19.91
2018-07-11T06:05:17.712Z,19.81
2018-07-11T06:06:17.876Z,19.81
2018-07-11T06:07:18.046Z,19.84
2018-07-11T06:08:18.216Z,19.83
2018-07-11T06:09:18.380Z,19.86
2018-07-11T06:10:18.549Z,19.71
2018-07-11T06:11:18.718Z,19.81
2018-07-11T06:12:18.896Z,19.86
2018-07-11T06:13:19.109Z,19.81
2018-07-11T06:14:19.236Z,19.88
2018-07-11T06:15:19.407Z,19.88
2018-07-11T06:16:19.581Z,19.96
2018-07-11T06:17:19.748Z,19.95
2018-07-11T06:18:19.919Z,19.98
2018-07-11T06:19:20.091Z,20.08
2018-07-11T06:20:20.257Z,20.05
2018-07-11T06:21:21.390Z,20.05
2018-07-11T06:22:20.602Z,19.99
2018-07-11T06:23:20.769Z,20.03
2018-07-11T06:24:20.938Z,20.10
2018-07-11T06:25:21.104Z,20.10
2018-07-11T06:26:21.288Z,20.02
2018-07-11T06:27:21.451Z,20.02
2018-07-11T06:28:21.619Z,20.11
2018-07-11T06:29:21.788Z,20.17
2018-07-11T06:30:21.959Z,20.21
2018-07-11T06:31:22.125Z,20.24
2018-07-11T06:32:22.294Z,20.26
2018-07-11T06:33:22.532Z,20.35
2018-07-11T06:34:22.629Z,20.51
2018-07-11T06:35:22.802Z,20.51
2018-07-11T06:36:22.985Z,20.51
2018-07-11T06:37:23.150Z,20.48
2018-07-11T06:38:23.323Z,20.51
2018-07-11T06:39:23.538Z,20.51
2018-07-11T06:40:23.658Z,20.58
2018-07-11T06:41:23.826Z,20.64
2018-07-11T06:42:23.996Z,20.61
2018-07-11T06:43:24.169Z,20.62
2018-07-11T06:44:24.381Z,20.66
2018-07-11T06:45:24.510Z,20.74
2018-07-11T06:46:24.674Z,20.82
2018-07-11T06:47:24.846Z,20.76
2018-07-11T06:48:25.018Z,20.85
2018-07-11T06:49:25.182Z,20.79
2018-07-11T06:50:25.356Z,20.92
2018-07-11T06:51:25.522Z,20.95
2018-07-11T06:52:25.691Z,20.88
2018-07-11T06:53:25.857Z,20.97
2018-07-11T06:54:26.029Z,20.95
2018-07-11T06:55:26.200Z,20.91
2018-07-11T06:56:26.362Z,21.04
2018-07-11T06:57:26.562Z,21.12
2018-07-11T06:58:26.708Z,21.24
2018-07-11T06:59:26.877Z,21.29
2018-07-11T07:00:27.051Z,21.32
2018-07-11T07:01:27.220Z,21.35
2018-07-11T07:02:27.394Z,21.32
2018-07-11T07:03:27.583Z,21.31
2018-07-11T07:04:27.738Z,21.46
2018-07-11T07:05:27.908Z,21.50
2018-07-11T07:06:28.095Z,21.43
2018-07-11T07:07:28.262Z,21.50
2018-07-11T07:08:28.429Z,21.54
2018-07-11T07:09:28.605Z,21.53
2018-07-11T07:10:28.776Z,21.54
2018-07-11T07:11:28.946Z,21.44
2018-07-11T07:12:29.118Z,21.59
2018-07-11T07:13:29.296Z,21.65
2018-07-11T07:14:29.465Z,21.71
2018-07-11T07:15:29.629Z,21.84
2018-07-11T07:16:29.805Z,21.96
2018-07-11T07:17:29.967Z,22.07
2018-07-11T07:18:30.132Z,22.09
2018-07-11T07:19:30.308Z,22.10
2018-07-11T07:20:30.481Z,22.12
2018-07-11T07:21:30.649Z,22.09
2018-07-11T07:22:30.869Z,22.15
2018-07-11T07:23:30.991Z,22.00
2018-07-11T07:24:31.159Z,22.17
2018-07-11T07:25:31.324Z,22.15
2018-07-11T07:26:31.498Z,22.24
2018-07-11T07:27:31.666Z,22.35
2018-07-11T07:28:31.837Z,22.46
2018-07-11T07:29:32.009Z,22.47
2018-07-11T07:30:32.180Z,22.65
2018-07-11T07:31:32.351Z,22.60
2018-07-11T07:32:32.531Z,22.77
2018-07-11T07:33:32.695Z,22.82
2018-07-11T07:34:32.875Z,22.68
2018-07-11T07:35:33.038Z,22.76
2018-07-11T07:36:33.215Z,22.61
2018-07-11T07:37:33.388Z,22.54
2018-07-11T07:38:33.562Z,22.54
2018-07-11T07:39:33.735Z,22.49
2018-07-11T07:40:33.909Z,22.60
2018-07-11T07:41:34.074Z,22.58
2018-07-11T07:42:34.248Z,22.58
2018-07-11T07:43:34.417Z,22.62
2018-07-11T07:44:34.587Z,22.61
2018-07-11T07:45:34.756Z,22.60
2018-07-11T07:46:34.926Z,22.67
2018-07-11T07:47:35.100Z,22.67
2018-07-11T07:48:35.269Z,22.83
2018-07-11T07:49:35.445Z,23.01
2018-07-11T07:50:35.614Z,23.23
2018-07-11T07:51:35.791Z,23.10
2018-07-11T07:52:35.963Z,23.12
2018-07-11T07:53:36.139Z,23.01
2018-07-11T07:54:36.308Z,22.91
2018-07-11T07:55:36.475Z,22.86
2018-07-11T07:56:36.650Z,23.05
2018-07-11T07:57:36.825Z,23.12
2018-07-11T07:58:36.997Z,23.15
2018-07-11T07:59:37.169Z,23.09
2018-07-11T08:00:37.408Z,23.10
2018-07-11T08:01:37.513Z,23.02
2018-07-11T08:02:37.676Z,23.09
2018-07-11T08:03:37.855Z,23.05
2018-07-11T08:04:38.031Z,23.22
2018-07-11T08:05:38.196Z,23.35
2018-07-11T08:06:38.369Z,23.43
2018-07-11T08:07:38.549Z,23.66
2018-07-11T08:08:38.712Z,23.76
2018-07-11T08:09:38.892Z,24.06
2018-07-11T08:10:39.059Z,24.20
2018-07-11T08:11:39.234Z,24.35
2018-07-11T08:12:39.426Z,24.42
2018-07-11T08:13:39.583Z,24.35
2018-07-11T08:14:39.760Z,24.57
2018-07-11T08:15:39.928Z,24.62
2018-07-11T08:16:40.098Z,24.73
2018-07-11T08:17:40.271Z,24.83
2018-07-11T08:18:40.442Z,25.02
2018-07-11T08:19:40.613Z,25.25
2018-07-11T08:20:40.786Z,25.32
2018-07-11T08:21:40.955Z,25.47
2018-07-11T08:22:41.162Z,25.50
2018-07-11T08:23:41.314Z,25.58
2018-07-11T08:24:41.484Z,25.61
2018-07-11T08:25:41.656Z,25.51
2018-07-11T08:26:41.839Z,25.46
2018-07-11T08:27:42.009Z,25.51
2018-07-11T08:28:42.179Z,25.40
2018-07-11T08:29:42.377Z,25.30
2018-07-11T08:30:42.519Z,25.24
2018-07-11T08:31:42.691Z,25.46
2018-07-11T08:32:42.901Z,25.51
2018-07-11T08:33:43.077Z,25.70
2018-07-11T08:34:43.254Z,25.94
2018-07-11T08:35:43.425Z,26.05
2018-07-11T08:36:43.597Z,25.87
2018-07-11T08:37:43.768Z,25.55
2018-07-11T08:38:43.938Z,25.54
2018-07-11T08:39:44.118Z,25.69
2018-07-11T08:40:44.287Z,25.64
2018-07-11T08:41:44.466Z,25.70
2018-07-11T08:42:44.637Z,25.72
2018-07-11T08:43:44.841Z,25.47
2018-07-11T08:44:45.018Z,25.50
2018-07-11T08:45:45.191Z,25.57
2018-07-11T08:46:45.357Z,25.65
2018-07-11T08:47:45.569Z,25.40
2018-07-11T08:48:45.701Z,25.51
2018-07-11T08:49:45.879Z,25.52
2018-07-11T08:50:47.001Z,25.62
2018-07-11T08:51:46.173Z,25.82
2018-07-11T08:52:46.351Z,25.90
2018-07-11T08:53:46.532Z,25.87
2018-07-11T08:54:46.697Z,25.87
2018-07-11T08:55:46.868Z,25.90
2018-07-11T08:56:47.041Z,25.85
2018-07-11T08:57:47.218Z,26.02
2018-07-11T08:58:47.394Z,26.02
2018-07-11T08:59:47.578Z,25.87
2018-07-11T09:00:47.760Z,25.94
2018-07-11T09:01:47.938Z,25.85
2018-07-11T09:02:48.128Z,25.92
2018-07-11T09:03:48.293Z,26.01
2018-07-11T09:04:48.465Z,26.06
2018-07-11T09:05:48.635Z,26.20
2018-07-11T09:06:48.812Z,26.23
2018-07-11T09:07:48.991Z,26.30
2018-07-11T09:08:49.157Z,26.63
2018-07-11T09:09:49.348Z,26.63
2018-07-11T09:10:49.525Z,26.81
2018-07-11T09:11:49.691Z,26.75
2018-07-11T09:12:49.872Z,26.92
2018-07-11T09:13:50.048Z,26.95
2018-07-11T09:14:50.220Z,27.06
2018-07-11T09:15:50.407Z,27.36
2018-07-11T09:16:50.577Z,27.41
2018-07-11T09:17:50.803Z,27.60
2018-07-11T09:18:50.932Z,27.51
2018-07-11T09:19:51.105Z,27.34
2018-07-11T09:20:51.279Z,27.04
2018-07-11T09:21:51.457Z,26.70
2018-07-11T09:22:51.631Z,26.62
2018-07-11T09:23:51.911Z,26.51
2018-07-11T09:24:51.987Z,26.32
2018-07-11T09:25:52.150Z,26.18
2018-07-11T09:26:52.321Z,26.06
2018-07-11T09:27:52.499Z,25.92
2018-07-11T09:28:52.671Z,25.80
2018-07-11T09:29:52.844Z,25.61
2018-07-11T09:30:53.022Z,25.39
2018-07-11T09:31:53.193Z,25.25
2018-07-11T09:32:53.364Z,25.18
2018-07-11T09:33:53.540Z,25.03
2018-07-11T09:34:53.707Z,24.96
2018-07-11T09:35:53.885Z,25.00
2018-07-11T09:36:54.057Z,24.73
2018-07-11T09:37:54.236Z,24.62
2018-07-11T09:38:54.410Z,24.58
2018-07-11T09:39:54.589Z,24.46
2018-07-11T09:40:54.757Z,24.50
2018-07-11T09:41:54.937Z,24.87
2018-07-11T09:42:55.107Z,24.84
2018-07-11T09:43:55.286Z,24.98
2018-07-11T09:44:55.461Z,24.81
2018-07-11T09:45:55.642Z,24.71
2018-07-11T09:46:55.814Z,24.61
2018-07-11T09:47:55.983Z,24.60
2018-07-11T09:48:56.158Z,24.32
2018-07-11T09:49:56.332Z,24.22
2018-07-11T09:50:56.508Z,24.10
2018-07-11T09:51:56.691Z,24.06
2018-07-11T09:52:56.867Z,24.10
2018-07-11T09:53:57.049Z,23.97
2018-07-11T09:54:57.225Z,24.02
2018-07-11T09:55:57.415Z,24.06
2018-07-11T09:56:57.587Z,24.15
2018-07-11T09:57:57.759Z,24.25
2018-07-11T09:58:57.931Z,24.30
2018-07-11T09:59:58.114Z,24.30
2018-07-11T10:00:58.289Z,24.20
2018-07-11T10:01:58.457Z,24.30
2018-07-11T10:02:58.642Z,24.45
2018-07-11T10:03:59.520Z,24.52
2018-07-11T10:05:00.098Z,24.53
2018-07-11T10:06:36.973Z,24.53
2018-07-11T10:06:59.300Z,24.53
2018-07-11T10:07:59.477Z,24.58
2018-07-11T10:08:59.638Z,24.76
2018-07-11T10:09:59.830Z,24.93
2018-07-11T10:11:00.012Z,25.08
2018-07-11T10:12:00.191Z,25.17
2018-07-11T10:13:00.340Z,25.08
2018-07-11T10:14:00.517Z,25.25
2018-07-11T10:15:00.680Z,25.51
2018-07-11T10:16:00.861Z,26.33
2018-07-11T10:17:01.041Z,26.47
2018-07-11T10:18:01.215Z,26.47
2018-07-11T10:19:01.390Z,26.58
2018-07-11T10:20:01.560Z,26.80
2018-07-11T10:21:01.803Z,27.51
2018-07-11T10:22:01.938Z,29.48
2018-07-11T10:23:02.119Z,30.55
2018-07-11T10:24:02.286Z,32.22
2018-07-11T10:25:02.471Z,33.32
2018-07-11T10:26:02.692Z,34.27
2018-07-11T10:27:02.841Z,34.96
2018-07-11T10:28:03.017Z,35.28
2018-07-11T10:29:03.189Z,36.00
2018-07-11T10:30:03.366Z,36.41
2018-07-11T10:31:03.550Z,36.57
2018-07-11T10:32:03.739Z,36.31
2018-07-11T10:33:03.920Z,37.21
2018-07-11T10:34:04.091Z,35.52
2018-07-11T10:35:04.266Z,34.39
2018-07-11T10:36:04.450Z,33.75
2018-07-11T10:37:04.640Z,33.03
2018-07-11T10:38:04.802Z,32.56
2018-07-11T10:39:05.022Z,32.38
2018-07-11T10:40:05.174Z,32.78
2018-07-11T10:41:05.354Z,33.38
2018-07-11T10:42:05.712Z,32.92
2018-07-11T10:43:05.748Z,32.37
2018-07-11T10:44:05.932Z,31.76
2018-07-11T10:45:06.114Z,31.13
2018-07-11T10:46:06.286Z,30.92
2018-07-11T10:47:06.474Z,30.67
2018-07-11T10:48:06.648Z,30.69
2018-07-11T10:49:06.820Z,30.61
2018-07-11T10:50:07.947Z,30.76
2018-07-11T10:51:07.196Z,30.83
2018-07-11T10:52:07.378Z,31.19
2018-07-11T10:53:07.550Z,31.48
2018-07-11T10:54:07.750Z,31.88
2018-07-11T10:55:07.906Z,32.67
2018-07-11T10:56:08.083Z,33.76
2018-07-11T10:57:08.262Z,34.30
2018-07-11T10:58:08.602Z,34.94
2018-07-11T10:59:08.629Z,35.68
2018-07-11T11:00:08.790Z,36.31
2018-07-11T11:01:09.040Z,37.06
2018-07-11T11:02:09.274Z,38.00
2018-07-11T11:03:09.373Z,38.03
2018-07-11T11:04:09.619Z,37.36
2018-07-11T11:05:09.735Z,36.68
2018-07-11T11:06:09.929Z,36.56
2018-07-11T11:07:10.111Z,36.19
2018-07-11T11:08:10.298Z,35.41
2018-07-11T11:09:10.508Z,34.72
2018-07-11T11:10:10.661Z,33.87
2018-07-11T11:11:10.839Z,33.03
2018-07-11T11:12:11.121Z,32.55
2018-07-11T11:13:11.209Z,32.18
2018-07-11T11:14:11.387Z,31.70
2018-07-11T11:15:11.569Z,31.19
2018-07-11T11:16:11.759Z,30.86
2018-07-11T11:17:11.939Z,30.64
2018-07-11T11:18:12.117Z,30.35
2018-07-11T11:19:12.300Z,30.20
2018-07-11T11:20:12.479Z,29.95
2018-07-11T11:21:12.659Z,29.95
2018-07-11T11:22:12.839Z,29.94
2018-07-11T11:23:13.034Z,30.10
2018-07-11T11:24:13.213Z,30.29
2018-07-11T11:25:13.370Z,30.02
2018-07-11T11:26:13.549Z,30.11
2018-07-11T11:27:13.738Z,31.29
2018-07-11T11:28:13.905Z,32.28
2018-07-11T11:29:14.079Z,33.45
2018-07-11T11:30:14.256Z,34.87
2018-07-11T11:31:14.447Z,35.97
2018-07-11T11:32:14.632Z,36.65
2018-07-11T11:33:14.818Z,37.46
2018-07-11T11:34:15.045Z,37.70
2018-07-11T11:35:15.222Z,38.49
2018-07-11T11:36:15.418Z,39.13
2018-07-11T11:37:15.611Z,39.52
2018-07-11T11:38:15.790Z,39.70
2018-07-11T11:39:15.978Z,39.41
2018-07-11T11:40:16.958Z,39.28
2018-07-11T11:41:16.393Z,39.03
2018-07-11T11:42:16.668Z,39.67
2018-07-11T11:43:16.718Z,40.27
2018-07-11T11:44:16.894Z,40.22
2018-07-11T11:45:17.078Z,39.98
2018-07-11T11:46:17.266Z,40.45
2018-07-11T11:47:17.463Z,40.00
2018-07-11T11:48:17.659Z,39.43
2018-07-11T11:49:17.848Z,38.03
2018-07-11T11:50:18.050Z,37.27
2018-07-11T11:51:18.237Z,36.71
2018-07-11T11:52:18.449Z,35.80
2018-07-11T11:53:18.660Z,35.18
2018-07-11T11:54:18.848Z,34.62
2018-07-11T11:55:19.051Z,34.10
2018-07-11T11:56:19.232Z,33.16
2018-07-11T11:57:19.458Z,32.84
2018-07-11T11:58:19.624Z,32.30
2018-07-11T11:59:19.809Z,31.51
2018-07-11T12:00:19.997Z,30.73
2018-07-11T12:01:20.177Z,30.67
2018-07-11T12:02:20.361Z,30.37
2018-07-11T12:03:20.567Z,30.43
2018-07-11T12:04:20.730Z,30.54
2018-07-11T12:05:20.915Z,30.46
2018-07-11T12:06:21.107Z,30.29
2018-07-11T12:07:21.276Z,30.00
2018-07-11T12:08:21.458Z,30.02
2018-07-11T12:09:21.649Z,30.15
2018-07-11T12:10:21.834Z,29.76
2018-07-11T12:11:22.008Z,29.83
2018-07-11T12:12:22.192Z,29.71
2018-07-11T12:13:22.373Z,29.82
2018-07-11T12:14:22.572Z,29.76
2018-07-11T12:15:22.751Z,30.00
2018-07-11T12:16:22.933Z,30.05
2018-07-11T12:17:23.109Z,29.60
2018-07-11T12:18:23.289Z,29.79
2018-07-11T12:19:23.470Z,30.11
2018-07-11T12:20:23.655Z,30.60
2018-07-11T12:21:23.890Z,30.75
2018-07-11T12:22:24.008Z,31.46
2018-07-11T12:23:24.188Z,32.35
2018-07-11T12:24:24.370Z,32.74
2018-07-11T12:25:24.549Z,32.37
2018-07-11T12:26:24.731Z,32.01
2018-07-11T12:28:18.427Z,32.10
2018-07-11T12:29:18.616Z,31.95
2018-07-11T12:30:18.790Z,30.80
2018-07-11T12:31:18.932Z,30.62
2018-07-11T12:32:19.117Z,30.45
2018-07-11T12:33:19.294Z,30.08
2018-07-11T12:34:19.498Z,29.68
2018-07-11T12:35:19.659Z,29.34
2018-07-11T12:36:20.127Z,29.12
2018-07-11T12:37:19.965Z,29.23
2018-07-11T12:38:20.304Z,28.86
2018-07-11T12:39:20.281Z,28.92
2018-07-11T12:40:20.477Z,29.00
2018-07-11T12:41:20.771Z,28.88
2018-07-11T12:42:20.867Z,28.77
2018-07-11T12:43:21.219Z,29.31
2018-07-11T12:44:21.496Z,29.82
2018-07-11T12:45:21.682Z,29.82
2018-07-11T12:46:21.932Z,29.82
2018-07-11T12:47:22.057Z,29.89
2018-07-11T12:48:22.237Z,30.61
2018-07-11T12:49:22.134Z,30.67
2018-07-11T12:50:22.683Z,31.09
2018-07-11T12:51:23.453Z,31.13
2018-07-11T12:52:22.875Z,31.09
2018-07-11T12:53:22.805Z,31.21
2018-07-11T12:54:22.986Z,31.04
2018-07-11T12:55:23.166Z,30.55